Terminal Aerodrome Forecast
Issued by NWS Wilmington, OH

Current Version | Previous Version | Graphics & Text | Print | Product List | Glossary On
Versions: 1 2 3 4 5 6 7 8 9 10 11 12 13 14 15 16 17 18 19
000
FTUS41 KILN 302300 RRA
TAFILN
TAF
KILN 302344Z 3100/3124 29004KT P6SM VCSH FEW050
      TEMPO 3100/3102 4SM -TSRA BR BKN040CB
     FM310200 00000KT P6SM SCT100
     FM310800 00000KT 4SM BR FEW050
      TEMPO 3109/3113 2SM BR
     FM311300 24006KT P6SM SCT050
     FM312300 27006KT P6SM SKC=

USA.gov is the U.S. government's official web portal to all federal, state and local government web resources and services.